sensor_id;sensor_type;location;lat;lon;timestamp;pressure;altitude;pressure_sealevel;temperature
13570;BMP180;6856;51.460;7.158;2023-02-15T00:00:41;101700.00;;;8.40
13570;BMP180;6856;51.460;7.158;2023-02-15T00:03:17;101694.00;;;8.40
13570;BMP180;6856;51.460;7.158;2023-02-15T00:05:51;101696.00;;;8.30
13570;BMP180;6856;51.460;7.158;2023-02-15T00:08:27;101685.00;;;8.30
13570;BMP180;6856;51.460;7.158;2023-02-15T00:11:06;101676.00;;;8.20
13570;BMP180;6856;51.460;7.158;2023-02-15T00:13:42;101672.00;;;8.20
13570;BMP180;6856;51.460;7.158;2023-02-15T00:16:16;101675.00;;;8.20
13570;BMP180;6856;51.460;7.158;2023-02-15T00:18:52;101661.00;;;8.10
13570;BMP180;6856;51.460;7.158;2023-02-15T00:21:25;101666.00;;;8.10
13570;BMP180;6856;51.460;7.158;2023-02-15T00:24:04;101666.00;;;8.00
13570;BMP180;6856;51.460;7.158;2023-02-15T00:26:39;101653.00;;;8.00
13570;BMP180;6856;51.460;7.158;2023-02-15T00:29:17;101659.00;;;8.00
13570;BMP180;6856;51.460;7.158;2023-02-15T00:31:51;101661.00;;;8.00
13570;BMP180;6856;51.460;7.158;2023-02-15T00:34:27;101662.00;;;7.90
13570;BMP180;6856;51.460;7.158;2023-02-15T00:37:00;101654.00;;;7.80
13570;BMP180;6856;51.460;7.158;2023-02-15T00:39:37;101666.00;;;7.90
13570;BMP180;6856;51.460;7.158;2023-02-15T00:42:11;101665.00;;;7.80
13570;BMP180;6856;51.460;7.158;2023-02-15T00:44:46;101667.00;;;7.80
13570;BMP180;6856;51.460;7.158;2023-02-15T00:47:20;101652.00;;;7.80
13570;BMP180;6856;51.460;7.158;2023-02-15T00:49:54;101669.00;;;7.70
13570;BMP180;6856;51.460;7.158;2023-02-15T00:52:28;101651.00;;;7.70
13570;BMP180;6856;51.460;7.158;2023-02-15T00:55:05;101676.00;;;7.70
13570;BMP180;6856;51.460;7.158;2023-02-15T00:57:39;101678.00;;;7.60
13570;BMP180;6856;51.460;7.158;2023-02-15T01:00:15;101639.00;;;7.60
13570;BMP180;6856;51.460;7.158;2023-02-15T01:02:49;101667.00;;;7.60
13570;BMP180;6856;51.460;7.158;2023-02-15T01:05:24;101640.00;;;7.50
13570;BMP180;6856;51.460;7.158;2023-02-15T01:07:59;101679.00;;;7.50
13570;BMP180;6856;51.460;7.158;2023-02-15T01:10:35;101673.00;;;7.50
13570;BMP180;6856;51.460;7.158;2023-02-15T01:13:09;101664.00;;;7.50
13570;BMP180;6856;51.460;7.158;2023-02-15T01:15:44;101649.00;;;7.50
13570;BMP180;6856;51.460;7.158;2023-02-15T01:18:22;101661.00;;;7.40
13570;BMP180;6856;51.460;7.158;2023-02-15T01:20:56;101657.00;;;7.40
13570;BMP180;6856;51.460;7.158;2023-02-15T01:23:33;101649.00;;;7.40
13570;BMP180;6856;51.460;7.158;2023-02-15T01:26:10;101667.00;;;7.30
13570;BMP180;6856;51.460;7.158;2023-02-15T01:28:44;101659.00;;;7.30
13570;BMP180;6856;51.460;7.158;2023-02-15T01:31:20;101648.00;;;7.30
13570;BMP180;6856;51.460;7.158;2023-02-15T01:33:54;101639.00;;;7.30
13570;BMP180;6856;51.460;7.158;2023-02-15T01:36:28;101647.00;;;7.30
13570;BMP180;6856;51.460;7.158;2023-02-15T01:39:02;101637.00;;;7.20
13570;BMP180;6856;51.460;7.158;2023-02-15T01:41:39;101651.00;;;7.20
13570;BMP180;6856;51.460;7.158;2023-02-15T01:44:48;101644.00;;;7.10
13570;BMP180;6856;51.460;7.158;2023-02-15T01:47:29;101638.00;;;7.10
13570;BMP180;6856;51.460;7.158;2023-02-15T01:50:12;101628.00;;;7.10
13570;BMP180;6856;51.460;7.158;2023-02-15T01:52:53;101615.00;;;7.10
13570;BMP180;6856;51.460;7.158;2023-02-15T01:55:33;101622.00;;;7.00
13570;BMP180;6856;51.460;7.158;2023-02-15T01:58:11;101618.00;;;7.00
13570;BMP180;6856;51.460;7.158;2023-02-15T02:00:45;101628.00;;;7.00
13570;BMP180;6856;51.460;7.158;2023-02-15T02:03:34;101619.00;;;7.00
13570;BMP180;6856;51.460;7.158;2023-02-15T02:06:10;101606.00;;;6.90
13570;BMP180;6856;51.460;7.158;2023-02-15T02:08:46;101614.00;;;6.90
13570;BMP180;6856;51.460;7.158;2023-02-15T02:11:20;101612.00;;;6.90
13570;BMP180;6856;51.460;7.158;2023-02-15T02:13:56;101613.00;;;6.90
13570;BMP180;6856;51.460;7.158;2023-02-15T02:16:44;101615.00;;;6.80
13570;BMP180;6856;51.460;7.158;2023-02-15T02:23:23;101600.00;;;6.70
13570;BMP180;6856;51.460;7.158;2023-02-15T02:26:53;101588.00;;;6.70
13570;BMP180;6856;51.460;7.158;2023-02-15T02:30:20;101582.00;;;6.70
13570;BMP180;6856;51.460;7.158;2023-02-15T02:33:32;101583.00;;;6.70
13570;BMP180;6856;51.460;7.158;2023-02-15T02:36:20;101572.00;;;6.60
13570;BMP180;6856;51.460;7.158;2023-02-15T02:39:14;101579.00;;;6.60
13570;BMP180;6856;51.460;7.158;2023-02-15T02:42:01;101566.00;;;6.60
13570;BMP180;6856;51.460;7.158;2023-02-15T02:44:42;101573.00;;;6.60
13570;BMP180;6856;51.460;7.158;2023-02-15T02:47:22;101576.00;;;6.50
13570;BMP180;6856;51.460;7.158;2023-02-15T02:50:03;101565.00;;;6.50
13570;BMP180;6856;51.460;7.158;2023-02-15T02:52:41;101564.00;;;6.50
13570;BMP180;6856;51.460;7.158;2023-02-15T02:55:26;101550.00;;;6.50
13570;BMP180;6856;51.460;7.158;2023-02-15T02:58:07;101561.00;;;6.40
13570;BMP180;6856;51.460;7.158;2023-02-15T03:00:49;101555.00;;;6.40
13570;BMP180;6856;51.460;7.158;2023-02-15T03:03:29;101548.00;;;6.40
13570;BMP180;6856;51.460;7.158;2023-02-15T03:06:12;101547.00;;;6.40
13570;BMP180;6856;51.460;7.158;2023-02-15T03:08:57;101539.00;;;6.30
13570;BMP180;6856;51.460;7.158;2023-02-15T03:11:34;101532.00;;;6.30
13570;BMP180;6856;51.460;7.158;2023-02-15T03:14:08;101536.00;;;6.30
13570;BMP180;6856;51.460;7.158;2023-02-15T03:16:47;101533.00;;;6.30
13570;BMP180;6856;51.460;7.158;2023-02-15T03:19:26;101533.00;;;6.30
13570;BMP180;6856;51.460;7.158;2023-02-15T03:22:08;101531.00;;;6.20
13570;BMP180;6856;51.460;7.158;2023-02-15T03:24:50;101532.00;;;6.20
13570;BMP180;6856;51.460;7.158;2023-02-15T03:27:33;101535.00;;;6.20
13570;BMP180;6856;51.460;7.158;2023-02-15T03:30:10;101526.00;;;6.10
13570;BMP180;6856;51.460;7.158;2023-02-15T03:32:47;101535.00;;;6.10
13570;BMP180;6856;51.460;7.158;2023-02-15T03:35:33;101538.00;;;6.10
13570;BMP180;6856;51.460;7.158;2023-02-15T03:38:20;101540.00;;;6.10
13570;BMP180;6856;51.460;7.158;2023-02-15T03:40:58;101528.00;;;6.10
13570;BMP180;6856;51.460;7.158;2023-02-15T03:43:51;101532.00;;;6.10
13570;BMP180;6856;51.460;7.158;2023-02-15T03:46:32;101515.00;;;6.00
13570;BMP180;6856;51.460;7.158;2023-02-15T03:49:12;101515.00;;;6.10
13570;BMP180;6856;51.460;7.158;2023-02-15T03:51:51;101525.00;;;6.00
13570;BMP180;6856;51.460;7.158;2023-02-15T03:54:33;101523.00;;;6.00
13570;BMP180;6856;51.460;7.158;2023-02-15T03:57:22;101527.00;;;6.00
13570;BMP180;6856;51.460;7.158;2023-02-15T04:00:18;101526.00;;;6.00
13570;BMP180;6856;51.460;7.158;2023-02-15T04:03:28;101531.00;;;6.00
13570;BMP180;6856;51.460;7.158;2023-02-15T04:06:04;101524.00;;;6.00
13570;BMP180;6856;51.460;7.158;2023-02-15T04:08:38;101523.00;;;5.90
13570;BMP180;6856;51.460;7.158;2023-02-15T04:11:33;101532.00;;;5.90
13570;BMP180;6856;51.460;7.158;2023-02-15T04:14:07;101523.00;;;5.90
13570;BMP180;6856;51.460;7.158;2023-02-15T04:16:56;101513.00;;;5.90
13570;BMP180;6856;51.460;7.158;2023-02-15T04:19:30;101530.00;;;5.90
13570;BMP180;6856;51.460;7.158;2023-02-15T04:22:21;101489.00;;;5.90
13570;BMP180;6856;51.460;7.158;2023-02-15T04:25:12;101503.00;;;5.80
13570;BMP180;6856;51.460;7.158;2023-02-15T04:27:51;101515.00;;;5.80
13570;BMP180;6856;51.460;7.158;2023-02-15T04:30:26;101515.00;;;5.80
13570;BMP180;6856;51.460;7.158;2023-02-15T04:33:00;101522.00;;;5.80
13570;BMP180;6856;51.460;7.158;2023-02-15T04:35:34;101511.00;;;5.80
13570;BMP180;6856;51.460;7.158;2023-02-15T04:38:08;101513.00;;;5.80
13570;BMP180;6856;51.460;7.158;2023-02-15T04:40:42;101515.00;;;5.80
13570;BMP180;6856;51.460;7.158;2023-02-15T04:43:17;101523.00;;;5.80
13570;BMP180;6856;51.460;7.158;2023-02-15T04:45:51;101519.00;;;5.80
13570;BMP180;6856;51.460;7.158;2023-02-15T04:48:25;101526.00;;;5.70
13570;BMP180;6856;51.460;7.158;2023-02-15T04:50:59;101496.00;;;5.70
13570;BMP180;6856;51.460;7.158;2023-02-15T04:53:33;101516.00;;;5.70
13570;BMP180;6856;51.460;7.158;2023-02-15T04:56:07;101522.00;;;5.70
13570;BMP180;6856;51.460;7.158;2023-02-15T04:58:42;101513.00;;;5.70
13570;BMP180;6856;51.460;7.158;2023-02-15T05:01:17;101508.00;;;5.70
13570;BMP180;6856;51.460;7.158;2023-02-15T05:03:51;101501.00;;;5.60
13570;BMP180;6856;51.460;7.158;2023-02-15T05:06:26;101502.00;;;5.60
13570;BMP180;6856;51.460;7.158;2023-02-15T05:09:00;101501.00;;;5.60
13570;BMP180;6856;51.460;7.158;2023-02-15T05:11:34;101511.00;;;5.60
13570;BMP180;6856;51.460;7.158;2023-02-15T05:14:09;101515.00;;;5.60
13570;BMP180;6856;51.460;7.158;2023-02-15T05:16:43;101506.00;;;5.60
13570;BMP180;6856;51.460;7.158;2023-02-15T05:19:17;101510.00;;;5.60
13570;BMP180;6856;51.460;7.158;2023-02-15T05:21:51;101497.00;;;5.60
13570;BMP180;6856;51.460;7.158;2023-02-15T05:24:25;101495.00;;;5.60
13570;BMP180;6856;51.460;7.158;2023-02-15T05:27:16;101493.00;;;5.60
13570;BMP180;6856;51.460;7.158;2023-02-15T05:30:13;101484.00;;;5.60
13570;BMP180;6856;51.460;7.158;2023-02-15T05:32:48;101483.00;;;5.60
13570;BMP180;6856;51.460;7.158;2023-02-15T05:35:22;101476.00;;;5.50
13570;BMP180;6856;51.460;7.158;2023-02-15T05:37:56;101478.00;;;5.50
13570;BMP180;6856;51.460;7.158;2023-02-15T05:40:30;101479.00;;;5.50
13570;BMP180;6856;51.460;7.158;2023-02-15T05:43:04;101476.00;;;5.50
13570;BMP180;6856;51.460;7.158;2023-02-15T05:45:40;101461.00;;;5.50
13570;BMP180;6856;51.460;7.158;2023-02-15T05:48:13;101470.00;;;5.50
13570;BMP180;6856;51.460;7.158;2023-02-15T05:50:57;101468.00;;;5.50
13570;BMP180;6856;51.460;7.158;2023-02-15T05:53:35;101474.00;;;5.50
13570;BMP180;6856;51.460;7.158;2023-02-15T05:56:11;101460.00;;;5.50
13570;BMP180;6856;51.460;7.158;2023-02-15T05:58:45;101458.00;;;5.40
13570;BMP180;6856;51.460;7.158;2023-02-15T06:01:22;101457.00;;;5.40
13570;BMP180;6856;51.460;7.158;2023-02-15T06:03:56;101457.00;;;5.40
13570;BMP180;6856;51.460;7.158;2023-02-15T06:06:30;101468.00;;;5.40
13570;BMP180;6856;51.460;7.158;2023-02-15T06:09:06;101477.00;;;5.40
13570;BMP180;6856;51.460;7.158;2023-02-15T06:11:40;101470.00;;;5.40
13570;BMP180;6856;51.460;7.158;2023-02-15T06:14:14;101465.00;;;5.40
13570;BMP180;6856;51.460;7.158;2023-02-15T06:16:50;101472.00;;;5.40
13570;BMP180;6856;51.460;7.158;2023-02-15T06:19:24;101466.00;;;5.30
13570;BMP180;6856;51.460;7.158;2023-02-15T06:21:58;101463.00;;;5.30
13570;BMP180;6856;51.460;7.158;2023-02-15T06:24:32;101463.00;;;5.30
13570;BMP180;6856;51.460;7.158;2023-02-15T06:27:06;101466.00;;;5.30
13570;BMP180;6856;51.460;7.158;2023-02-15T06:29:40;101458.00;;;5.30
13570;BMP180;6856;51.460;7.158;2023-02-15T06:32:16;101468.00;;;5.30
13570;BMP180;6856;51.460;7.158;2023-02-15T06:34:50;101466.00;;;5.30
13570;BMP180;6856;51.460;7.158;2023-02-15T06:37:24;101471.00;;;5.30
13570;BMP180;6856;51.460;7.158;2023-02-15T06:39:59;101471.00;;;5.20
13570;BMP180;6856;51.460;7.158;2023-02-15T06:42:35;101479.00;;;5.20
13570;BMP180;6856;51.460;7.158;2023-02-15T06:45:10;101466.00;;;5.20
13570;BMP180;6856;51.460;7.158;2023-02-15T06:47:46;101480.00;;;5.20
13570;BMP180;6856;51.460;7.158;2023-02-15T06:50:20;101478.00;;;5.20
13570;BMP180;6856;51.460;7.158;2023-02-15T06:52:56;101472.00;;;5.20
13570;BMP180;6856;51.460;7.158;2023-02-15T06:55:30;101471.00;;;5.20
13570;BMP180;6856;51.460;7.158;2023-02-15T06:58:05;101471.00;;;5.20
13570;BMP180;6856;51.460;7.158;2023-02-15T07:00:42;101470.00;;;5.20
13570;BMP180;6856;51.460;7.158;2023-02-15T07:03:17;101474.00;;;5.20
13570;BMP180;6856;51.460;7.158;2023-02-15T07:05:55;101474.00;;;5.20
13570;BMP180;6856;51.460;7.158;2023-02-15T07:08:30;101476.00;;;5.20
13570;BMP180;6856;51.460;7.158;2023-02-15T07:11:06;101473.00;;;5.20
13570;BMP180;6856;51.460;7.158;2023-02-15T07:13:58;101471.00;;;5.20
13570;BMP180;6856;51.460;7.158;2023-02-15T07:16:32;101472.00;;;5.10
13570;BMP180;6856;51.460;7.158;2023-02-15T07:19:08;101472.00;;;5.10
13570;BMP180;6856;51.460;7.158;2023-02-15T07:21:41;101474.00;;;5.10
13570;BMP180;6856;51.460;7.158;2023-02-15T07:24:18;101479.00;;;5.20
13570;BMP180;6856;51.460;7.158;2023-02-15T07:26:52;101445.00;;;5.10
13570;BMP180;6856;51.460;7.158;2023-02-15T07:29:25;101464.00;;;5.20
13570;BMP180;6856;51.460;7.158;2023-02-15T07:31:59;101465.00;;;5.20
13570;BMP180;6856;51.460;7.158;2023-02-15T07:34:35;101440.00;;;5.20
13570;BMP180;6856;51.460;7.158;2023-02-15T07:37:09;101467.00;;;5.20
13570;BMP180;6856;51.460;7.158;2023-02-15T07:39:43;101457.00;;;5.20
13570;BMP180;6856;51.460;7.158;2023-02-15T07:42:17;101461.00;;;5.20
13570;BMP180;6856;51.460;7.158;2023-02-15T07:44:52;101452.00;;;5.30
13570;BMP180;6856;51.460;7.158;2023-02-15T07:47:28;101447.00;;;5.30
13570;BMP180;6856;51.460;7.158;2023-02-15T07:50:05;101441.00;;;5.30
13570;BMP180;6856;51.460;7.158;2023-02-15T07:52:39;101439.00;;;5.40
13570;BMP180;6856;51.460;7.158;2023-02-15T07:55:13;101431.00;;;5.40
13570;BMP180;6856;51.460;7.158;2023-02-15T07:57:50;101442.00;;;5.40
13570;BMP180;6856;51.460;7.158;2023-02-15T08:00:26;101436.00;;;5.40
13570;BMP180;6856;51.460;7.158;2023-02-15T08:03:03;101419.00;;;5.50
13570;BMP180;6856;51.460;7.158;2023-02-15T08:05:51;101429.00;;;5.60
13570;BMP180;6856;51.460;7.158;2023-02-15T08:08:26;101400.00;;;5.60
13570;BMP180;6856;51.460;7.158;2023-02-15T08:11:18;101425.00;;;5.70
13570;BMP180;6856;51.460;7.158;2023-02-15T08:14:07;101426.00;;;5.80
13570;BMP180;6856;51.460;7.158;2023-02-15T08:16:44;101426.00;;;5.80
13570;BMP180;6856;51.460;7.158;2023-02-15T08:19:22;101394.00;;;5.90
13570;BMP180;6856;51.460;7.158;2023-02-15T08:22:00;101386.00;;;6.00
13570;BMP180;6856;51.460;7.158;2023-02-15T08:24:36;101412.00;;;6.10
13570;BMP180;6856;51.460;7.158;2023-02-15T08:27:11;101407.00;;;6.20
13570;BMP180;6856;51.460;7.158;2023-02-15T08:29:45;101408.00;;;6.30
13570;BMP180;6856;51.460;7.158;2023-02-15T08:32:19;101413.00;;;6.40
13570;BMP180;6856;51.460;7.158;2023-02-15T08:34:53;101415.00;;;6.50
13570;BMP180;6856;51.460;7.158;2023-02-15T08:37:28;101417.00;;;6.60
13570;BMP180;6856;51.460;7.158;2023-02-15T08:40:02;101411.00;;;6.70
13570;BMP180;6856;51.460;7.158;2023-02-15T08:42:37;101407.00;;;6.90
13570;BMP180;6856;51.460;7.158;2023-02-15T08:45:11;101405.00;;;7.00
13570;BMP180;6856;51.460;7.158;2023-02-15T08:47:44;101389.00;;;7.10
13570;BMP180;6856;51.460;7.158;2023-02-15T08:50:19;101408.00;;;7.30
13570;BMP180;6856;51.460;7.158;2023-02-15T08:52:55;101408.00;;;7.40
13570;BMP180;6856;51.460;7.158;2023-02-15T08:55:29;101395.00;;;7.50
13570;BMP180;6856;51.460;7.158;2023-02-15T08:58:03;101395.00;;;7.70
13570;BMP180;6856;51.460;7.158;2023-02-15T09:00:37;101394.00;;;7.80
13570;BMP180;6856;51.460;7.158;2023-02-15T09:03:11;101395.00;;;8.00
13570;BMP180;6856;51.460;7.158;2023-02-15T09:05:44;101393.00;;;8.10
13570;BMP180;6856;51.460;7.158;2023-02-15T09:08:20;101388.00;;;8.20
13570;BMP180;6856;51.460;7.158;2023-02-15T09:11:03;101394.00;;;8.40
13570;BMP180;6856;51.460;7.158;2023-02-15T09:13:38;101387.00;;;8.50
13570;BMP180;6856;51.460;7.158;2023-02-15T09:16:12;101392.00;;;8.60
13570;BMP180;6856;51.460;7.158;2023-02-15T09:18:49;101390.00;;;8.70
13570;BMP180;6856;51.460;7.158;2023-02-15T09:21:25;101392.00;;;8.90
13570;BMP180;6856;51.460;7.158;2023-02-15T09:24:04;101394.00;;;9.00
13570;BMP180;6856;51.460;7.158;2023-02-15T09:26:40;101380.00;;;9.10
13570;BMP180;6856;51.460;7.158;2023-02-15T09:29:16;101392.00;;;9.20
13570;BMP180;6856;51.460;7.158;2023-02-15T09:31:51;101393.00;;;9.40
13570;BMP180;6856;51.460;7.158;2023-02-15T09:34:25;101399.00;;;9.50
13570;BMP180;6856;51.460;7.158;2023-02-15T09:36:59;101400.00;;;9.70
13570;BMP180;6856;51.460;7.158;2023-02-15T09:39:40;101398.00;;;9.80
13570;BMP180;6856;51.460;7.158;2023-02-15T09:45:54;101403.00;;;10.10
13570;BMP180;6856;51.460;7.158;2023-02-15T09:48:40;101407.00;;;10.20
13570;BMP180;6856;51.460;7.158;2023-02-15T09:51:45;101407.00;;;10.40
13570;BMP180;6856;51.460;7.158;2023-02-15T09:54:44;101401.00;;;10.50
13570;BMP180;6856;51.460;7.158;2023-02-15T09:57:30;101406.00;;;10.70
13570;BMP180;6856;51.460;7.158;2023-02-15T10:00:19;101396.00;;;10.80
13570;BMP180;6856;51.460;7.158;2023-02-15T10:06:36;101420.00;;;11.10
13570;BMP180;6856;51.460;7.158;2023-02-15T10:09:39;101417.00;;;11.30
13570;BMP180;6856;51.460;7.158;2023-02-15T10:12:53;101418.00;;;11.40
13570;BMP180;6856;51.460;7.158;2023-02-15T10:15:50;101423.00;;;11.60
13570;BMP180;6856;51.460;7.158;2023-02-15T10:18:55;101411.00;;;11.70
13570;BMP180;6856;51.460;7.158;2023-02-15T10:21:51;101412.00;;;11.80
13570;BMP180;6856;51.460;7.158;2023-02-15T10:24:50;101416.00;;;12.00
13570;BMP180;6856;51.460;7.158;2023-02-15T10:27:35;101417.00;;;12.10
13570;BMP180;6856;51.460;7.158;2023-02-15T10:30:13;101410.00;;;12.20
13570;BMP180;6856;51.460;7.158;2023-02-15T10:33:00;101406.00;;;12.30
13570;BMP180;6856;51.460;7.158;2023-02-15T10:35:45;101403.00;;;12.40
13570;BMP180;6856;51.460;7.158;2023-02-15T10:38:34;101409.00;;;12.60
13570;BMP180;6856;51.460;7.158;2023-02-15T10:41:31;101408.00;;;12.70
13570;BMP180;6856;51.460;7.158;2023-02-15T10:44:37;101410.00;;;12.80
13570;BMP180;6856;51.460;7.158;2023-02-15T10:47:35;101405.00;;;12.90
13570;BMP180;6856;51.460;7.158;2023-02-15T10:50:26;101402.00;;;13.10
13570;BMP180;6856;51.460;7.158;2023-02-15T10:53:20;101402.00;;;13.20
13570;BMP180;6856;51.460;7.158;2023-02-15T10:56:11;101401.00;;;13.30
13570;BMP180;6856;51.460;7.158;2023-02-15T10:59:04;101398.00;;;13.40
13570;BMP180;6856;51.460;7.158;2023-02-15T11:01:53;101398.00;;;13.50
13570;BMP180;6856;51.460;7.158;2023-02-15T11:04:54;101396.00;;;13.70
13570;BMP180;6856;51.460;7.158;2023-02-15T11:07:37;101373.00;;;13.80
13570;BMP180;6856;51.460;7.158;2023-02-15T11:10:27;101403.00;;;13.80
13570;BMP180;6856;51.460;7.158;2023-02-15T11:13:09;101383.00;;;14.00
13570;BMP180;6856;51.460;7.158;2023-02-15T11:15:50;101389.00;;;14.10
13570;BMP180;6856;51.460;7.158;2023-02-15T11:18:33;101391.00;;;14.10
13570;BMP180;6856;51.460;7.158;2023-02-15T11:21:13;101387.00;;;14.20
13570;BMP180;6856;51.460;7.158;2023-02-15T11:23:53;101392.00;;;14.30
13570;BMP180;6856;51.460;7.158;2023-02-15T11:26:33;101392.00;;;14.40
13570;BMP180;6856;51.460;7.158;2023-02-15T11:29:13;101388.00;;;14.50
13570;BMP180;6856;51.460;7.158;2023-02-15T11:31:56;101381.00;;;14.60
13570;BMP180;6856;51.460;7.158;2023-02-15T11:34:40;101376.00;;;14.80
13570;BMP180;6856;51.460;7.158;2023-02-15T11:37:24;101377.00;;;14.80
13570;BMP180;6856;51.460;7.158;2023-02-15T11:40:15;101370.00;;;14.90
13570;BMP180;6856;51.460;7.158;2023-02-15T11:42:57;101376.00;;;15.00
13570;BMP180;6856;51.460;7.158;2023-02-15T11:45:34;101375.00;;;15.10
13570;BMP180;6856;51.460;7.158;2023-02-15T11:48:14;101369.00;;;15.20
13570;BMP180;6856;51.460;7.158;2023-02-15T11:50:53;101375.00;;;15.30
13570;BMP180;6856;51.460;7.158;2023-02-15T11:53:33;101367.00;;;15.30
13570;BMP180;6856;51.460;7.158;2023-02-15T11:56:16;101362.00;;;15.40
13570;BMP180;6856;51.460;7.158;2023-02-15T11:58:56;101365.00;;;15.50
13570;BMP180;6856;51.460;7.158;2023-02-15T12:01:35;101371.00;;;15.60
13570;BMP180;6856;51.460;7.158;2023-02-15T12:04:22;101363.00;;;15.70
13570;BMP180;6856;51.460;7.158;2023-02-15T12:07:03;101370.00;;;15.70
13570;BMP180;6856;51.460;7.158;2023-02-15T12:09:48;101371.00;;;15.80
13570;BMP180;6856;51.460;7.158;2023-02-15T12:12:27;101368.00;;;15.90
13570;BMP180;6856;51.460;7.158;2023-02-15T12:15:04;101364.00;;;15.90
13570;BMP180;6856;51.460;7.158;2023-02-15T12:17:41;101359.00;;;16.00
13570;BMP180;6856;51.460;7.158;2023-02-15T12:20:28;101357.00;;;16.00
13570;BMP180;6856;51.460;7.158;2023-02-15T12:23:12;101357.00;;;16.10
13570;BMP180;6856;51.460;7.158;2023-02-15T12:25:52;101351.00;;;16.20
13570;BMP180;6856;51.460;7.158;2023-02-15T12:28:32;101338.00;;;16.20
13570;BMP180;6856;51.460;7.158;2023-02-15T12:31:21;101346.00;;;16.30
13570;BMP180;6856;51.460;7.158;2023-02-15T12:33:57;101329.00;;;16.30
13570;BMP180;6856;51.460;7.158;2023-02-15T12:36:43;101335.00;;;16.40
13570;BMP180;6856;51.460;7.158;2023-02-15T12:39:24;101327.00;;;16.40
13570;BMP180;6856;51.460;7.158;2023-02-15T12:42:04;101334.00;;;16.50
13570;BMP180;6856;51.460;7.158;2023-02-15T12:44:38;101325.00;;;16.50
13570;BMP180;6856;51.460;7.158;2023-02-15T12:47:19;101326.00;;;16.50
13570;BMP180;6856;51.460;7.158;2023-02-15T12:50:22;101311.00;;;16.60
13570;BMP180;6856;51.460;7.158;2023-02-15T12:53:13;101305.00;;;16.70
13570;BMP180;6856;51.460;7.158;2023-02-15T12:55:54;101300.00;;;16.70
13570;BMP180;6856;51.460;7.158;2023-02-15T12:58:31;101317.00;;;16.80
13570;BMP180;6856;51.460;7.158;2023-02-15T13:01:15;101308.00;;;16.90
13570;BMP180;6856;51.460;7.158;2023-02-15T13:03:58;101314.00;;;16.90
13570;BMP180;6856;51.460;7.158;2023-02-15T13:06:35;101314.00;;;17.00
13570;BMP180;6856;51.460;7.158;2023-02-15T13:09:19;101316.00;;;17.10
13570;BMP180;6856;51.460;7.158;2023-02-15T13:11:55;101316.00;;;17.10
13570;BMP180;6856;51.460;7.158;2023-02-15T13:14:32;101311.00;;;17.20
13570;BMP180;6856;51.460;7.158;2023-02-15T13:17:05;101315.00;;;17.20
13570;BMP180;6856;51.460;7.158;2023-02-15T13:19:44;101306.00;;;17.30
13570;BMP180;6856;51.460;7.158;2023-02-15T13:22:22;101313.00;;;17.30
13570;BMP180;6856;51.460;7.158;2023-02-15T13:25:03;101311.00;;;17.40
13570;BMP180;6856;51.460;7.158;2023-02-15T13:27:42;101301.00;;;17.40
13570;BMP180;6856;51.460;7.158;2023-02-15T13:30:24;101300.00;;;17.40
13570;BMP180;6856;51.460;7.158;2023-02-15T13:33:03;101298.00;;;17.50
13570;BMP180;6856;51.460;7.158;2023-02-15T13:35:43;101281.00;;;17.50
13570;BMP180;6856;51.460;7.158;2023-02-15T13:58:19;101235.00;;;17.50
13570;BMP180;6856;51.460;7.158;2023-02-15T14:01:09;101266.00;;;17.70
13570;BMP180;6856;51.460;7.158;2023-02-15T14:04:21;101263.00;;;17.70
13570;BMP180;6856;51.460;7.158;2023-02-15T14:07:24;101255.00;;;17.80
13570;BMP180;6856;51.460;7.158;2023-02-15T14:13:58;101256.00;;;17.80
13570;BMP180;6856;51.460;7.158;2023-02-15T14:16:48;101253.00;;;17.80
13570;BMP180;6856;51.460;7.158;2023-02-15T14:19:45;101247.00;;;17.80
13570;BMP180;6856;51.460;7.158;2023-02-15T14:22:31;101261.00;;;17.70
13570;BMP180;6856;51.460;7.158;2023-02-15T14:25:25;101198.00;;;17.90
13570;BMP180;6856;51.460;7.158;2023-02-15T14:28:11;101239.00;;;17.80
13570;BMP180;6856;51.460;7.158;2023-02-15T14:30:51;101239.00;;;17.80
13570;BMP180;6856;51.460;7.158;2023-02-15T14:33:33;101191.00;;;17.90
13570;BMP180;6856;51.460;7.158;2023-02-15T14:36:15;101253.00;;;17.90
13570;BMP180;6856;51.460;7.158;2023-02-15T14:39:11;101249.00;;;17.80
13570;BMP180;6856;51.460;7.158;2023-02-15T14:42:15;101253.00;;;17.80
13570;BMP180;6856;51.460;7.158;2023-02-15T14:45:01;101247.00;;;17.80
13570;BMP180;6856;51.460;7.158;2023-02-15T14:47:44;101245.00;;;17.80
13570;BMP180;6856;51.460;7.158;2023-02-15T14:50:44;101253.00;;;17.80
13570;BMP180;6856;51.460;7.158;2023-02-15T14:53:36;101247.00;;;17.80
13570;BMP180;6856;51.460;7.158;2023-02-15T14:56:22;101251.00;;;17.70
13570;BMP180;6856;51.460;7.158;2023-02-15T14:59:19;101250.00;;;17.70
13570;BMP180;6856;51.460;7.158;2023-02-15T15:02:07;101247.00;;;17.70
13570;BMP180;6856;51.460;7.158;2023-02-15T15:05:01;101236.00;;;17.70
13570;BMP180;6856;51.460;7.158;2023-02-15T15:07:42;101234.00;;;17.70
13570;BMP180;6856;51.460;7.158;2023-02-15T15:10:43;101237.00;;;17.70
13570;BMP180;6856;51.460;7.158;2023-02-15T15:13:38;101219.00;;;17.60
13570;BMP180;6856;51.460;7.158;2023-02-15T15:16:37;101225.00;;;17.60
13570;BMP180;6856;51.460;7.158;2023-02-15T15:20:06;101229.00;;;17.60
13570;BMP180;6856;51.460;7.158;2023-02-15T15:22:45;101196.00;;;17.60
13570;BMP180;6856;51.460;7.158;2023-02-15T15:25:42;101224.00;;;17.60
13570;BMP180;6856;51.460;7.158;2023-02-15T15:29:00;101212.00;;;17.60
13570;BMP180;6856;51.460;7.158;2023-02-15T15:31:49;101221.00;;;17.60
13570;BMP180;6856;51.460;7.158;2023-02-15T15:35:11;101222.00;;;17.50
13570;BMP180;6856;51.460;7.158;2023-02-15T15:38:17;101225.00;;;17.50
13570;BMP180;6856;51.460;7.158;2023-02-15T15:41:17;101223.00;;;17.50
13570;BMP180;6856;51.460;7.158;2023-02-15T15:44:51;101223.00;;;17.50
13570;BMP180;6856;51.460;7.158;2023-02-15T15:48:20;101229.00;;;17.40
13570;BMP180;6856;51.460;7.158;2023-02-15T15:51:03;101227.00;;;17.40
13570;BMP180;6856;51.460;7.158;2023-02-15T15:53:42;101247.00;;;17.40
13570;BMP180;6856;51.460;7.158;2023-02-15T15:56:24;101176.00;;;17.40
13570;BMP180;6856;51.460;7.158;2023-02-15T15:59:05;101230.00;;;17.30
13570;BMP180;6856;51.460;7.158;2023-02-15T16:01:47;101238.00;;;17.30
13570;BMP180;6856;51.460;7.158;2023-02-15T16:04:28;101229.00;;;17.30
13570;BMP180;6856;51.460;7.158;2023-02-15T16:07:24;101238.00;;;17.10
13570;BMP180;6856;51.460;7.158;2023-02-15T16:10:21;101216.00;;;17.20
13570;BMP180;6856;51.460;7.158;2023-02-15T16:12:56;101233.00;;;17.20
13570;BMP180;6856;51.460;7.158;2023-02-15T16:15:36;101217.00;;;17.10